Terminal Aerodrome Forecast
Issued by NWS

Home | Current Version | Previous Version | Text Only | Print | Product List | Glossary On
Versions: 1 2 3 4 5 6 7 8 9 10 11 12 13 14 15
000
FTUS45 KABQ 041900 AAA
TAFFMN
TAF AMD
KFMN 041922Z 0419/0518 16007KT P6SM VCTS BKN070CB
      TEMPO 0419/0422 VRB20G30KT -TSRA OVC060CB
     FM050000 14007KT P6SM -TSRA OVC060CB
      TEMPO 0500/0503 6SM TSRA OVC030CB
     FM050300 10006KT P6SM VCSH BKN080
     FM050600 11008KT P6SM -RA BKN040=

USA.gov is the U.S. government's official web portal to all federal, state and local government web resources and services.